createdAt,value
2022-09-28T00:00:05.669Z,9.18
2022-09-28T00:01:05.462Z,9.17
2022-09-28T00:02:05.632Z,9.17
2022-09-28T00:03:05.545Z,9.14
2022-09-28T00:04:05.428Z,9.13
2022-09-28T00:05:05.428Z,9.13
2022-09-28T00:06:05.528Z,9.11
2022-09-28T00:07:05.398Z,9.10
2022-09-28T00:08:05.449Z,9.10
2022-09-28T00:09:05.369Z,9.08
2022-09-28T00:10:05.381Z,9.05
2022-09-28T00:11:05.350Z,9.10
2022-09-28T00:12:05.815Z,9.05
2022-09-28T00:13:05.685Z,9.05
2022-09-28T00:14:05.358Z,9.04
2022-09-28T00:15:05.321Z,9.05
2022-09-28T00:16:05.442Z,9.04
2022-09-28T00:17:05.311Z,9.04
2022-09-28T00:18:05.301Z,9.02
2022-09-28T00:19:05.262Z,9.04
2022-09-28T00:20:05.305Z,9.02
2022-09-28T00:21:05.241Z,9.02
2022-09-28T00:22:05.238Z,9.02
2022-09-28T00:23:05.221Z,9.02
2022-09-28T00:24:05.249Z,9.02
2022-09-28T00:25:05.221Z,9.04
2022-09-28T00:26:05.191Z,9.02
2022-09-28T00:27:05.172Z,9.02
2022-09-28T00:28:05.172Z,9.04
2022-09-28T00:29:05.153Z,9.02
2022-09-28T00:30:05.175Z,9.04
2022-09-28T00:31:05.196Z,9.04
2022-09-28T00:32:05.133Z,9.05
2022-09-28T00:33:05.115Z,9.04
2022-09-28T00:34:05.103Z,9.05
2022-09-28T00:35:05.084Z,9.05
2022-09-28T00:36:05.164Z,9.05
2022-09-28T00:37:05.067Z,9.04
2022-09-28T00:38:05.062Z,9.05
2022-09-28T00:39:05.045Z,9.04
2022-09-28T00:40:05.139Z,9.05
2022-09-28T00:41:05.025Z,9.08
2022-09-28T00:42:05.054Z,9.05
2022-09-28T00:43:04.995Z,9.10
2022-09-28T00:44:05.099Z,9.08
2022-09-28T00:45:04.976Z,9.05
2022-09-28T00:46:05.045Z,9.08
2022-09-28T00:47:04.965Z,9.08
2022-09-28T00:48:04.967Z,9.08
2022-09-28T00:49:04.935Z,9.08
2022-09-28T00:50:04.946Z,9.08
2022-09-28T00:51:04.906Z,9.08
2022-09-28T00:52:04.907Z,9.10
2022-09-28T00:53:04.895Z,9.10
2022-09-28T00:54:04.953Z,9.08
2022-09-28T00:55:04.879Z,9.08
2022-09-28T00:56:04.865Z,9.08
2022-09-28T00:57:04.867Z,9.08
2022-09-28T00:58:04.984Z,9.05
2022-09-28T00:59:04.830Z,9.05
2022-09-28T01:00:04.925Z,9.05
2022-09-28T01:01:04.843Z,9.04
2022-09-28T01:02:04.928Z,9.05
2022-09-28T01:03:04.779Z,9.04
2022-09-28T01:04:04.786Z,9.01
2022-09-28T01:05:04.783Z,9.02
2022-09-28T01:06:05.033Z,9.01
2022-09-28T01:07:04.747Z,8.99
2022-09-28T01:08:04.751Z,8.99
2022-09-28T01:09:04.718Z,8.98
2022-09-28T01:10:04.758Z,8.98
2022-09-28T01:11:04.717Z,8.96
2022-09-28T01:12:04.689Z,8.95
2022-09-28T01:13:04.676Z,8.94
2022-09-28T01:14:04.673Z,8.95
2022-09-28T01:15:04.672Z,8.94
2022-09-28T01:16:04.774Z,8.91
2022-09-28T01:17:04.639Z,8.92
2022-09-28T01:18:04.622Z,8.91
2022-09-28T01:19:04.614Z,8.89
2022-09-28T01:20:04.610Z,8.87
2022-09-28T01:21:04.590Z,8.87
2022-09-28T01:22:04.571Z,8.87
2022-09-28T01:23:04.572Z,8.86
2022-09-28T01:24:04.569Z,8.84
2022-09-28T01:25:04.570Z,8.84
2022-09-28T01:26:04.565Z,8.84
2022-09-28T01:27:04.550Z,8.83
2022-09-28T01:28:04.605Z,8.81
2022-09-28T01:29:04.509Z,8.83
2022-09-28T01:30:04.512Z,8.80
2022-09-28T01:31:04.488Z,8.80
2022-09-28T01:32:04.491Z,8.80
2022-09-28T01:33:04.463Z,8.79
2022-09-28T01:34:04.525Z,8.79
2022-09-28T01:35:04.482Z,8.77
2022-09-28T01:36:04.450Z,8.74
2022-09-28T01:37:04.633Z,8.74
2022-09-28T01:38:04.396Z,8.74
2022-09-28T01:39:04.393Z,8.71
2022-09-28T01:40:04.502Z,8.73
2022-09-28T01:41:04.373Z,8.71
2022-09-28T01:42:04.389Z,8.70
2022-09-28T01:43:04.354Z,8.71
2022-09-28T01:44:04.344Z,8.68
2022-09-28T01:45:04.395Z,8.68
2022-09-28T01:46:04.426Z,8.68
2022-09-28T01:47:04.467Z,8.66
2022-09-28T01:48:04.397Z,8.66
2022-09-28T01:49:04.277Z,8.65
2022-09-28T01:50:04.342Z,8.63
2022-09-28T01:51:04.266Z,8.65
2022-09-28T01:52:04.256Z,8.63
2022-09-28T01:53:04.246Z,8.61
2022-09-28T01:54:04.226Z,8.61
2022-09-28T01:55:04.367Z,8.61
2022-09-28T01:56:04.247Z,8.61
2022-09-28T01:57:04.197Z,8.58
2022-09-28T01:58:04.199Z,8.59
2022-09-28T01:59:04.167Z,8.56
2022-09-28T02:00:04.176Z,8.56
2022-09-28T02:01:04.212Z,8.55
2022-09-28T02:02:04.202Z,8.55
2022-09-28T02:03:04.168Z,8.55
2022-09-28T02:04:04.125Z,8.55
2022-09-28T02:05:04.117Z,8.53
2022-09-28T02:06:04.120Z,8.53
2022-09-28T02:07:04.080Z,8.53
2022-09-28T02:08:04.168Z,8.53
2022-09-28T02:09:04.058Z,8.52
2022-09-28T02:10:04.069Z,8.53
2022-09-28T02:11:04.049Z,8.53
2022-09-28T02:12:04.065Z,8.52
2022-09-28T02:13:04.020Z,8.53
2022-09-28T02:14:04.070Z,8.52
2022-09-28T02:15:04.009Z,8.53
2022-09-28T02:16:04.069Z,8.52
2022-09-28T02:17:03.987Z,8.53
2022-09-28T02:18:03.979Z,8.53
2022-09-28T02:19:03.979Z,8.55
2022-09-28T02:20:03.961Z,8.53
2022-09-28T02:21:03.932Z,8.55
2022-09-28T02:22:03.939Z,8.56
2022-09-28T02:23:03.911Z,8.56
2022-09-28T02:24:04.022Z,8.56
2022-09-28T02:25:03.893Z,8.58
2022-09-28T02:26:04.184Z,8.58
2022-09-28T02:27:03.873Z,8.58
2022-09-28T02:28:03.861Z,8.56
2022-09-28T02:29:03.849Z,8.58
2022-09-28T02:30:04.024Z,8.59
2022-09-28T02:31:03.899Z,8.59
2022-09-28T02:32:03.819Z,8.59
2022-09-28T02:33:03.802Z,8.61
2022-09-28T02:34:03.821Z,8.61
2022-09-28T02:35:03.804Z,8.61
2022-09-28T02:36:03.817Z,8.61
2022-09-28T02:37:03.759Z,8.61
2022-09-28T02:38:03.753Z,8.61
2022-09-28T02:39:03.742Z,8.62
2022-09-28T02:40:03.735Z,8.62
2022-09-28T02:41:03.715Z,8.62
2022-09-28T02:42:03.716Z,8.61
2022-09-28T02:43:03.694Z,8.62
2022-09-28T02:44:03.685Z,8.61
2022-09-28T02:45:03.687Z,8.61
2022-09-28T02:46:03.730Z,8.61
2022-09-28T02:47:03.653Z,8.59
2022-09-28T02:48:03.706Z,8.58
2022-09-28T02:49:20.951Z,8.58
2022-09-28T02:50:04.688Z,8.56
2022-09-28T02:51:03.610Z,8.56
2022-09-28T02:52:03.617Z,8.55
2022-09-28T02:53:03.589Z,8.55
2022-09-28T02:54:03.644Z,8.53
2022-09-28T02:55:03.568Z,8.50
2022-09-28T02:56:03.877Z,8.52
2022-09-28T02:57:03.538Z,8.50
2022-09-28T02:58:03.553Z,8.48
2022-09-28T02:59:03.517Z,8.48
2022-09-28T03:00:03.554Z,8.48
2022-09-28T03:01:03.542Z,8.47
2022-09-28T03:02:04.525Z,8.45
2022-09-28T03:03:03.484Z,8.44
2022-09-28T03:04:03.554Z,8.44
2022-09-28T03:05:03.467Z,8.43
2022-09-28T03:06:03.464Z,8.41
2022-09-28T03:07:03.428Z,8.40
2022-09-28T03:08:03.468Z,8.40
2022-09-28T03:09:03.407Z,8.38
2022-09-28T03:10:03.454Z,8.37
2022-09-28T03:11:03.405Z,8.37
2022-09-28T03:12:03.387Z,8.36
2022-09-28T03:13:03.369Z,8.36
2022-09-28T03:14:04.415Z,8.36
2022-09-28T03:15:03.370Z,8.37
2022-09-28T03:16:04.355Z,8.37
2022-09-28T03:17:03.337Z,8.37
2022-09-28T03:18:03.330Z,8.37
2022-09-28T03:19:03.299Z,8.38
2022-09-28T03:20:03.310Z,8.40
2022-09-28T03:21:03.283Z,8.40
2022-09-28T03:22:03.333Z,8.41
2022-09-28T03:24:04.290Z,8.43
2022-09-28T03:25:03.241Z,8.41
2022-09-28T03:26:03.288Z,8.43
2022-09-28T03:27:03.220Z,8.43
2022-09-28T03:28:03.201Z,8.44
2022-09-28T03:29:03.192Z,8.44
2022-09-28T03:30:03.200Z,8.44
2022-09-28T03:31:03.198Z,8.47
2022-09-28T03:32:03.186Z,8.47
2022-09-28T03:33:03.174Z,8.47
2022-09-28T03:34:03.131Z,8.47
2022-09-28T03:35:03.152Z,8.47
2022-09-28T03:36:03.112Z,8.48
2022-09-28T03:37:03.110Z,8.48
2022-09-28T03:38:03.097Z,8.48
2022-09-28T03:39:03.122Z,8.50
2022-09-28T03:40:03.073Z,8.50
2022-09-28T03:41:03.164Z,8.50
2022-09-28T03:42:03.080Z,8.50
2022-09-28T03:43:03.046Z,8.50
2022-09-28T03:44:03.043Z,8.53
2022-09-28T03:45:03.057Z,8.52
2022-09-28T03:46:03.073Z,8.53
2022-09-28T03:47:03.002Z,8.53
2022-09-28T03:48:02.994Z,8.52
2022-09-28T03:49:02.972Z,8.55
2022-09-28T03:50:03.005Z,8.55
2022-09-28T03:51:02.953Z,8.55
2022-09-28T03:52:02.935Z,8.55
2022-09-28T03:53:02.933Z,8.55
2022-09-28T03:54:02.926Z,8.56
2022-09-28T03:55:02.926Z,8.59
2022-09-28T03:56:02.916Z,8.58
2022-09-28T03:57:02.893Z,8.56
2022-09-28T03:58:02.884Z,8.58
2022-09-28T03:59:02.865Z,8.59
2022-09-28T04:00:02.874Z,8.58
2022-09-28T04:01:02.927Z,8.59
2022-09-28T04:02:02.894Z,8.58
2022-09-28T04:03:02.825Z,8.58
2022-09-28T04:04:02.856Z,8.58
2022-09-28T04:05:02.833Z,8.58
2022-09-28T04:06:02.792Z,8.59
2022-09-28T04:07:02.793Z,8.58
2022-09-28T04:08:02.823Z,8.58
2022-09-28T04:09:02.760Z,8.58
2022-09-28T04:10:02.765Z,8.58
2022-09-28T04:11:02.759Z,8.58
2022-09-28T04:12:04.477Z,8.58
2022-09-28T04:13:02.714Z,8.56
2022-09-28T04:14:02.789Z,8.56
2022-09-28T04:15:02.697Z,8.56
2022-09-28T04:16:02.728Z,8.56
2022-09-28T04:17:02.670Z,8.55
2022-09-28T04:18:02.846Z,8.55
2022-09-28T04:19:02.647Z,8.55
2022-09-28T04:20:02.679Z,8.53
2022-09-28T04:21:02.630Z,8.55
2022-09-28T04:22:02.971Z,8.55
2022-09-28T04:23:02.610Z,8.55
2022-09-28T04:24:02.658Z,8.55
2022-09-28T04:25:02.619Z,8.53
2022-09-28T04:26:02.752Z,8.53
2022-09-28T04:27:02.560Z,8.53
2022-09-28T04:28:02.809Z,8.53
2022-09-28T04:29:06.312Z,8.53
2022-09-28T04:30:02.778Z,8.53
2022-09-28T04:31:02.519Z,8.52
2022-09-28T04:32:02.567Z,8.53
2022-09-28T04:33:02.500Z,8.53
2022-09-28T04:34:02.841Z,8.50
2022-09-28T04:35:02.481Z,8.50
2022-09-28T04:36:02.751Z,8.48
2022-09-28T04:37:02.452Z,8.50
2022-09-28T04:38:03.478Z,8.48
2022-09-28T04:39:02.432Z,8.47
2022-09-28T04:40:02.569Z,8.45
2022-09-28T04:41:02.453Z,8.45
2022-09-28T04:42:02.478Z,8.45
2022-09-28T04:43:02.381Z,8.44
2022-09-28T04:44:02.407Z,8.44
2022-09-28T04:45:02.395Z,8.44
2022-09-28T04:46:02.689Z,8.43
2022-09-28T04:47:05.195Z,8.43
2022-09-28T04:48:02.415Z,8.41
2022-09-28T04:49:02.322Z,8.43
2022-09-28T04:50:02.331Z,8.41
2022-09-28T04:51:02.293Z,8.41
2022-09-28T04:52:02.325Z,8.41
2022-09-28T04:53:02.272Z,8.40
2022-09-28T04:54:02.273Z,8.40
2022-09-28T04:55:02.263Z,8.40
2022-09-28T04:56:02.270Z,8.40
2022-09-28T04:57:02.232Z,8.38
2022-09-28T04:58:02.253Z,8.40
2022-09-28T04:59:02.204Z,8.38
2022-09-28T05:00:02.263Z,8.40
2022-09-28T05:01:02.219Z,8.37
2022-09-28T05:02:02.249Z,8.40
2022-09-28T05:03:02.165Z,8.38
2022-09-28T05:04:02.246Z,8.38
2022-09-28T05:05:02.171Z,8.38
2022-09-28T05:06:02.135Z,8.38
2022-09-28T05:07:02.135Z,8.37
2022-09-28T05:08:02.124Z,8.38
2022-09-28T05:09:02.103Z,8.40
2022-09-28T05:10:02.137Z,8.40
2022-09-28T05:11:02.086Z,8.40
2022-09-28T05:12:02.075Z,8.40
2022-09-28T05:13:02.055Z,8.40
2022-09-28T05:14:02.086Z,8.40
2022-09-28T05:15:02.067Z,8.38
2022-09-28T05:16:05.409Z,8.38
2022-09-28T05:17:02.047Z,8.40
2022-09-28T05:18:02.028Z,8.40
2022-09-28T05:19:01.986Z,8.40
2022-09-28T05:20:02.006Z,8.40
2022-09-28T05:21:01.970Z,8.40
2022-09-28T05:22:01.958Z,8.40
2022-09-28T05:23:01.947Z,8.40
2022-09-28T05:24:01.942Z,8.43
2022-09-28T05:25:01.929Z,8.40
2022-09-28T05:26:01.956Z,8.40
2022-09-28T05:27:01.898Z,8.41
2022-09-28T05:28:01.991Z,8.40
2022-09-28T05:29:01.907Z,8.40
2022-09-28T05:30:01.955Z,8.40
2022-09-28T05:31:01.859Z,8.40
2022-09-28T05:32:02.058Z,8.38
2022-09-28T05:33:01.840Z,8.40
2022-09-28T05:34:01.853Z,8.37
2022-09-28T05:35:01.831Z,8.38
2022-09-28T05:36:02.096Z,8.38
2022-09-28T05:37:01.790Z,8.40
2022-09-28T05:38:01.829Z,8.40
2022-09-28T05:39:01.770Z,8.40
2022-09-28T05:40:01.799Z,8.40
2022-09-28T05:41:06.258Z,8.40
2022-09-28T05:42:01.750Z,8.40
2022-09-28T05:43:01.743Z,8.41
2022-09-28T05:44:01.775Z,8.43
2022-09-28T05:45:01.710Z,8.41
2022-09-28T05:46:01.758Z,8.43
2022-09-28T05:47:01.732Z,8.44
2022-09-28T05:48:01.690Z,8.44
2022-09-28T05:49:01.680Z,8.44
2022-09-28T05:50:01.671Z,8.45
2022-09-28T05:51:01.650Z,8.47
2022-09-28T05:52:01.650Z,8.48
2022-09-28T05:53:01.623Z,8.48
2022-09-28T05:54:05.752Z,8.50
2022-09-28T05:55:01.639Z,8.52
2022-09-28T05:56:01.747Z,8.52
2022-09-28T05:57:01.591Z,8.52
2022-09-28T05:58:01.572Z,8.53
2022-09-28T05:59:01.573Z,8.55
2022-09-28T06:00:01.583Z,8.58
2022-09-28T06:01:01.584Z,8.56
2022-09-28T06:02:01.576Z,8.58
2022-09-28T06:03:05.389Z,8.58
2022-09-28T06:04:02.612Z,8.59
2022-09-28T06:05:01.528Z,8.61
2022-09-28T06:06:01.621Z,8.59
2022-09-28T06:07:01.464Z,8.63
2022-09-28T06:08:01.462Z,8.63
2022-09-28T06:09:01.448Z,8.65
2022-09-28T06:10:01.444Z,8.65
2022-09-28T06:11:01.426Z,8.66
2022-09-28T06:12:01.418Z,8.68
2022-09-28T06:13:01.416Z,8.70
2022-09-28T06:14:01.395Z,8.71
2022-09-28T06:15:01.406Z,8.73
2022-09-28T06:16:01.375Z,8.74
2022-09-28T06:17:01.402Z,8.76
2022-09-28T06:18:01.357Z,8.77
2022-09-28T06:19:01.332Z,8.79
2022-09-28T06:20:01.361Z,8.80
2022-09-28T06:21:01.339Z,8.83
2022-09-28T06:22:01.316Z,8.84
2022-09-28T06:23:01.297Z,8.86
2022-09-28T06:24:01.355Z,8.86
2022-09-28T06:25:01.276Z,8.91
2022-09-28T06:26:01.266Z,8.94
2022-09-28T06:27:01.249Z,8.94
2022-09-28T06:28:01.238Z,8.96
2022-09-28T06:29:01.252Z,8.98
2022-09-28T06:30:01.229Z,9.01
2022-09-28T06:31:01.256Z,9.02
2022-09-28T06:32:01.199Z,9.04
2022-09-28T06:33:01.178Z,9.05
2022-09-28T06:34:01.170Z,9.05
2022-09-28T06:35:01.176Z,9.08
2022-09-28T06:36:01.166Z,9.08
2022-09-28T06:37:01.129Z,9.10
2022-09-28T06:38:01.137Z,9.10
2022-09-28T06:39:01.110Z,9.11
2022-09-28T06:40:01.111Z,9.11
2022-09-28T06:41:01.179Z,9.13
2022-09-28T06:42:01.112Z,9.14
2022-09-28T06:43:01.075Z,9.14
2022-09-28T06:44:01.061Z,9.15
2022-09-28T06:45:01.060Z,9.15
2022-09-28T06:46:01.116Z,9.15
2022-09-28T06:47:01.117Z,9.17
2022-09-28T06:48:01.024Z,9.15
2022-09-28T06:49:01.004Z,9.17
2022-09-28T06:50:01.004Z,9.17
2022-09-28T06:51:00.982Z,9.18
2022-09-28T06:52:00.992Z,9.21
2022-09-28T06:53:00.961Z,9.20
2022-09-28T06:54:00.953Z,9.20
2022-09-28T06:55:00.943Z,9.23
2022-09-28T06:56:00.934Z,9.23
2022-09-28T06:57:00.973Z,9.23
2022-09-28T06:58:00.915Z,9.21
2022-09-28T06:59:00.902Z,9.21
2022-09-28T07:00:00.904Z,9.23
2022-09-28T07:01:00.900Z,9.21
2022-09-28T07:02:00.904Z,9.21
2022-09-28T07:03:00.843Z,9.23
2022-09-28T07:04:00.846Z,9.24
2022-09-28T07:05:00.903Z,9.23
2022-09-28T07:06:00.815Z,9.26
2022-09-28T07:07:00.804Z,9.24
2022-09-28T07:08:00.796Z,9.24
2022-09-28T07:09:23.868Z,9.26
2022-09-28T07:10:01.872Z,9.26
2022-09-28T07:11:00.780Z,9.29
2022-09-28T07:12:00.745Z,9.29
2022-09-28T07:13:00.764Z,9.29
2022-09-28T07:14:00.785Z,9.29
2022-09-28T07:15:00.744Z,9.31
2022-09-28T07:16:00.713Z,9.29
2022-09-28T07:17:13.654Z,9.31
2022-09-28T07:18:03.462Z,9.32
2022-09-28T07:19:00.676Z,9.35
2022-09-28T07:20:09.148Z,9.35
2022-09-28T07:21:01.668Z,9.38
2022-09-28T07:22:04.984Z,9.39
2022-09-28T07:23:15.243Z,9.40
2022-09-28T07:24:01.723Z,9.43
2022-09-28T07:25:00.619Z,9.46
2022-09-28T07:26:00.603Z,9.48
2022-09-28T07:27:00.595Z,9.50
2022-09-28T07:28:00.568Z,9.50
2022-09-28T07:29:00.568Z,9.53
2022-09-28T07:30:00.568Z,9.54
2022-09-28T07:31:00.576Z,9.57
2022-09-28T07:32:00.528Z,9.58
2022-09-28T07:33:00.532Z,9.60
2022-09-28T07:34:00.527Z,9.61
2022-09-28T07:35:00.519Z,9.66
2022-09-28T07:36:00.480Z,9.68
2022-09-28T07:37:00.482Z,9.71
2022-09-28T07:38:00.463Z,9.71
2022-09-28T07:39:00.459Z,9.72
2022-09-28T07:40:00.461Z,9.75
2022-09-28T07:41:00.537Z,9.76
2022-09-28T07:42:03.031Z,9.79
2022-09-28T07:43:00.411Z,9.83
2022-09-28T07:44:00.401Z,9.87
2022-09-28T07:45:00.403Z,9.89
2022-09-28T07:46:00.453Z,9.91
2022-09-28T07:47:00.364Z,9.94
2022-09-28T07:48:00.387Z,9.96
2022-09-28T07:49:00.343Z,10.01
2022-09-28T07:50:00.352Z,10.02
2022-09-28T07:51:00.321Z,10.04
2022-09-28T07:52:00.304Z,10.05
2022-09-28T07:53:00.302Z,10.08
2022-09-28T07:54:00.291Z,10.09
2022-09-28T07:55:04.583Z,10.12
2022-09-28T07:56:01.274Z,10.14
2022-09-28T07:57:00.254Z,10.17
2022-09-28T07:58:00.253Z,10.20
2022-09-28T07:59:00.233Z,10.22
2022-09-28T08:00:00.248Z,10.25
2022-09-28T08:01:00.240Z,10.25
2022-09-28T08:02:00.269Z,10.27
2022-09-28T08:03:00.195Z,10.27
2022-09-28T08:04:00.176Z,10.29
2022-09-28T08:05:00.235Z,10.30
2022-09-28T08:06:00.176Z,10.33
2022-09-28T08:07:00.157Z,10.34
2022-09-28T08:08:00.136Z,10.36
2022-09-28T08:09:00.126Z,10.40
2022-09-28T08:10:00.132Z,10.42
2022-09-28T08:11:00.197Z,10.44
2022-09-28T08:12:00.099Z,10.48
2022-09-28T08:13:02.602Z,10.52
2022-09-28T08:14:00.079Z,10.55
2022-09-28T08:15:00.083Z,10.59
2022-09-28T08:16:00.061Z,10.63
2022-09-28T08:17:00.029Z,10.67
2022-09-28T08:18:02.641Z,10.71
2022-09-28T08:19:00.008Z,10.76
2022-09-28T08:20:00.049Z,10.79
2022-09-28T08:20:59.988Z,10.82
2022-09-28T08:21:59.980Z,10.86
2022-09-28T08:22:59.968Z,10.91
2022-09-28T08:23:59.999Z,10.96
2022-09-28T08:24:59.950Z,10.99
2022-09-28T08:25:59.974Z,11.02
2022-09-28T08:26:59.925Z,11.06
2022-09-28T08:27:59.920Z,11.07
2022-09-28T08:28:59.902Z,11.14
2022-09-28T08:29:59.921Z,11.27
2022-09-28T08:30:59.914Z,11.32
2022-09-28T08:32:01.690Z,11.33
2022-09-28T08:32:59.861Z,11.36
2022-09-28T08:33:59.844Z,11.33
2022-09-28T08:34:59.831Z,11.32
2022-09-28T08:36:00.043Z,11.19
2022-09-28T08:36:59.803Z,11.11
2022-09-28T08:37:59.803Z,11.06
2022-09-28T08:38:59.816Z,10.99
2022-09-28T08:39:59.783Z,10.92
2022-09-28T08:40:59.856Z,10.91
2022-09-28T08:41:59.765Z,10.94
2022-09-28T08:42:59.775Z,11.06
2022-09-28T08:43:59.766Z,11.14
2022-09-28T08:44:59.725Z,11.19
2022-09-28T08:45:59.778Z,11.28
2022-09-28T08:46:59.696Z,11.28
2022-09-28T08:47:59.698Z,11.37
2022-09-28T08:49:23.764Z,11.40
2022-09-28T08:50:00.690Z,11.47
2022-09-28T08:50:59.678Z,11.47
2022-09-28T08:51:59.662Z,11.57
2022-09-28T08:52:59.626Z,11.73
2022-09-28T08:53:59.628Z,11.83
2022-09-28T08:54:59.617Z,11.91
2022-09-28T08:55:59.660Z,12.04
2022-09-28T08:56:59.588Z,12.12
2022-09-28T08:57:59.577Z,12.28
2022-09-28T08:58:59.569Z,12.41
2022-09-28T08:59:59.558Z,12.53
2022-09-28T09:00:59.602Z,12.59
2022-09-28T09:01:59.559Z,12.62
2022-09-28T09:02:59.574Z,12.56
2022-09-28T09:03:59.519Z,12.53
2022-09-28T09:04:59.500Z,12.52
2022-09-28T09:05:59.502Z,12.56
2022-09-28T09:06:59.479Z,12.60
2022-09-28T09:07:59.472Z,12.67
2022-09-28T09:08:59.461Z,12.68
2022-09-28T09:09:59.442Z,12.70
2022-09-28T09:10:59.443Z,12.65
2022-09-28T09:11:59.432Z,12.60
2022-09-28T09:12:59.415Z,12.56
2022-09-28T09:13:59.685Z,12.60
2022-09-28T09:14:59.394Z,12.60
2022-09-28T09:15:59.391Z,12.59
2022-09-28T09:17:00.591Z,12.59
2022-09-28T09:17:59.372Z,12.60
2022-09-28T09:18:59.367Z,12.64
2022-09-28T09:19:59.354Z,12.59
2022-09-28T09:20:59.338Z,12.54
2022-09-28T09:21:59.487Z,12.53
2022-09-28T09:22:59.297Z,12.52
2022-09-28T09:24:00.016Z,12.54
2022-09-28T09:24:59.268Z,12.72
2022-09-28T09:25:59.278Z,12.89
2022-09-28T09:26:59.257Z,12.95
2022-09-28T09:27:59.258Z,13.04
2022-09-28T09:28:59.230Z,13.08
2022-09-28T09:29:59.222Z,13.05
2022-09-28T09:30:59.233Z,12.97
2022-09-28T09:31:59.199Z,12.92
2022-09-28T09:32:59.195Z,12.79
2022-09-28T09:33:59.183Z,12.75
2022-09-28T09:34:59.162Z,12.65
2022-09-28T09:35:59.212Z,12.56
2022-09-28T09:36:59.138Z,12.50
2022-09-28T09:37:59.131Z,12.42
2022-09-28T09:38:59.148Z,12.42
2022-09-28T09:39:59.112Z,12.39
2022-09-28T09:40:59.179Z,12.45
2022-09-28T09:41:59.112Z,12.50
2022-09-28T09:42:59.074Z,12.60
2022-09-28T09:43:59.064Z,12.71
2022-09-28T09:44:59.055Z,12.89
2022-09-28T09:45:59.128Z,12.90
2022-09-28T09:46:59.038Z,12.85
2022-09-28T09:47:59.034Z,12.83
2022-09-28T09:48:59.007Z,12.93
2022-09-28T09:49:59.013Z,13.01
2022-09-28T09:50:58.986Z,13.05
2022-09-28T09:51:58.974Z,13.15
2022-09-28T09:52:58.984Z,13.22
2022-09-28T09:53:59.047Z,13.28
2022-09-28T09:54:58.958Z,13.33
2022-09-28T09:55:58.938Z,13.44
2022-09-28T09:56:58.938Z,13.45
2022-09-28T09:57:58.919Z,13.49
2022-09-28T09:58:58.901Z,13.52
2022-09-28T09:59:58.889Z,13.48
2022-09-28T10:00:58.922Z,13.42
2022-09-28T10:01:58.930Z,13.36
2022-09-28T10:02:58.900Z,13.29
2022-09-28T10:03:58.899Z,13.26
2022-09-28T10:04:58.841Z,13.17
2022-09-28T10:05:58.868Z,13.10
2022-09-28T10:06:58.804Z,13.03
2022-09-28T10:07:58.803Z,13.07
2022-09-28T10:08:58.790Z,13.11
2022-09-28T10:09:58.784Z,13.10
2022-09-28T10:10:58.782Z,13.15
2022-09-28T10:11:58.757Z,13.19
2022-09-28T10:12:58.744Z,13.14
2022-09-28T10:13:58.735Z,13.08
2022-09-28T10:14:58.745Z,13.08
2022-09-28T10:15:58.712Z,13.10
2022-09-28T10:16:58.800Z,13.20
2022-09-28T10:17:58.701Z,13.22
2022-09-28T10:18:58.675Z,13.22
2022-09-28T10:19:58.688Z,13.29
2022-09-28T10:20:58.666Z,13.45
2022-09-28T10:21:58.646Z,13.52
2022-09-28T10:22:58.636Z,13.48
2022-09-28T10:23:58.618Z,13.45
2022-09-28T10:24:58.627Z,13.51
2022-09-28T10:25:58.599Z,13.54
2022-09-28T10:26:58.598Z,13.51
2022-09-28T10:27:58.582Z,13.41
2022-09-28T10:28:58.579Z,13.28
2022-09-28T10:29:58.559Z,13.22
2022-09-28T10:30:58.611Z,13.19
2022-09-28T10:31:58.542Z,13.17
2022-09-28T10:32:58.538Z,13.08
2022-09-28T10:33:58.505Z,13.00
2022-09-28T10:34:58.511Z,12.87
2022-09-28T10:35:58.490Z,12.77
2022-09-28T10:36:58.594Z,12.72
2022-09-28T10:37:58.492Z,12.65
2022-09-28T10:38:58.464Z,12.65
2022-09-28T10:39:58.462Z,12.71
2022-09-28T10:40:58.526Z,12.77
2022-09-28T10:41:58.434Z,12.92
2022-09-28T10:42:58.414Z,12.93
2022-09-28T10:43:58.604Z,13.00
2022-09-28T10:44:58.427Z,13.04
2022-09-28T10:45:58.446Z,13.11
2022-09-28T10:46:58.384Z,13.23
2022-09-28T10:47:58.367Z,13.42
2022-09-28T10:48:58.358Z,13.63
2022-09-28T10:49:58.379Z,13.81
2022-09-28T10:50:58.336Z,14.03
2022-09-28T10:51:58.317Z,14.10
2022-09-28T10:52:58.309Z,14.09
2022-09-28T10:53:58.344Z,14.04
2022-09-28T10:54:58.297Z,13.97
2022-09-28T10:55:58.278Z,13.88
2022-09-28T10:56:58.268Z,13.66
2022-09-28T10:57:58.240Z,13.52
2022-09-28T10:58:58.239Z,13.49
2022-09-28T10:59:58.249Z,13.41
2022-09-28T11:00:58.274Z,13.29
2022-09-28T11:01:58.234Z,13.23
2022-09-28T11:02:58.234Z,13.19
2022-09-28T11:03:58.181Z,13.10
2022-09-28T11:04:58.197Z,12.97
2022-09-28T11:05:58.181Z,12.90
2022-09-28T11:07:58.140Z,12.78
2022-09-28T11:08:58.132Z,12.75
2022-09-28T11:09:58.123Z,12.75
2022-09-28T11:10:58.106Z,12.71
2022-09-28T11:11:58.106Z,12.71
2022-09-28T11:12:58.089Z,12.72
2022-09-28T11:13:58.073Z,12.75
2022-09-28T11:14:58.094Z,12.93
2022-09-28T11:15:58.054Z,13.22
2022-09-28T11:16:58.070Z,13.59
2022-09-28T11:17:58.194Z,13.96
2022-09-28T11:18:58.018Z,14.37
2022-09-28T11:19:58.017Z,14.69
2022-09-28T11:20:57.997Z,14.98
2022-09-28T11:21:57.986Z,15.25
2022-09-28T11:22:57.988Z,15.50
2022-09-28T11:23:58.044Z,15.72
2022-09-28T11:24:58.060Z,15.87
2022-09-28T11:25:57.941Z,16.12
2022-09-28T11:26:57.949Z,16.21
2022-09-28T11:27:57.921Z,16.24
2022-09-28T11:28:57.913Z,16.20
2022-09-28T11:29:57.903Z,16.12
2022-09-28T11:30:58.065Z,16.00
2022-09-28T11:31:57.875Z,15.84
2022-09-28T11:32:57.952Z,15.65
2022-09-28T11:33:57.853Z,15.50
2022-09-28T11:34:59.877Z,15.25
2022-09-28T11:35:57.836Z,14.95
2022-09-28T11:37:01.508Z,14.73
2022-09-28T11:37:57.814Z,14.55
2022-09-28T11:38:57.806Z,14.51
2022-09-28T11:39:57.796Z,14.60
2022-09-28T11:40:57.855Z,14.72
2022-09-28T11:41:57.776Z,14.81
2022-09-28T11:42:57.948Z,14.81
2022-09-28T11:43:57.754Z,14.80
2022-09-28T11:44:57.758Z,14.77
2022-09-28T11:45:57.782Z,14.72
2022-09-28T11:46:57.718Z,14.70
2022-09-28T11:47:57.709Z,14.70
2022-09-28T11:48:57.708Z,14.68
2022-09-28T11:49:57.690Z,14.70
2022-09-28T11:50:57.742Z,14.61
2022-09-28T11:51:57.660Z,14.51
2022-09-28T11:52:57.651Z,14.46
2022-09-28T11:53:57.653Z,14.45
2022-09-28T11:54:57.634Z,14.45
2022-09-28T11:55:57.626Z,14.39
2022-09-28T11:56:57.614Z,14.33
2022-09-28T11:57:57.594Z,14.33
2022-09-28T11:58:57.603Z,14.27
2022-09-28T11:59:57.607Z,14.20
2022-09-28T12:00:57.559Z,14.07
2022-09-28T12:01:57.639Z,14.02
2022-09-28T12:02:57.679Z,13.97
2022-09-28T12:03:57.561Z,13.92
2022-09-28T12:04:57.535Z,13.89
2022-09-28T12:05:57.506Z,13.95
2022-09-28T12:06:57.486Z,13.96
2022-09-28T12:07:57.497Z,13.99
2022-09-28T12:08:57.479Z,14.00
2022-09-28T12:09:57.458Z,14.04
2022-09-28T12:10:57.448Z,14.06
2022-09-28T12:11:58.099Z,14.10
2022-09-28T12:12:57.646Z,14.09
2022-09-28T12:13:57.862Z,14.09
2022-09-28T12:14:57.657Z,14.10
2022-09-28T12:17:06.909Z,14.14
2022-09-28T12:17:58.635Z,14.15
2022-09-28T12:18:57.706Z,14.15
2022-09-28T12:19:57.623Z,14.20
2022-09-28T12:21:01.760Z,14.20
2022-09-28T12:21:58.457Z,14.18
2022-09-28T12:22:57.618Z,14.15
2022-09-28T12:23:58.129Z,14.15
2022-09-28T12:24:57.526Z,14.18
2022-09-28T12:25:57.564Z,14.20
2022-09-28T12:26:57.491Z,14.20
2022-09-28T12:27:57.263Z,14.18
2022-09-28T12:28:57.274Z,14.17
2022-09-28T12:29:57.374Z,14.12
2022-09-28T12:30:57.463Z,14.09
2022-09-28T12:31:57.249Z,14.09
2022-09-28T12:32:57.224Z,14.06
2022-09-28T12:33:57.206Z,14.02
2022-09-28T12:34:57.185Z,13.95
2022-09-28T12:35:57.188Z,13.91
2022-09-28T12:36:57.167Z,13.87
2022-09-28T12:37:57.164Z,13.87
2022-09-28T12:39:17.448Z,13.87
2022-09-28T12:39:58.631Z,13.82
2022-09-28T12:40:57.146Z,13.81
2022-09-28T12:41:57.116Z,13.81
2022-09-28T12:42:57.098Z,13.79
2022-09-28T12:43:57.111Z,13.77
2022-09-28T12:44:59.389Z,13.75
2022-09-28T12:46:11.513Z,13.73
2022-09-28T12:46:58.206Z,13.70
2022-09-28T12:47:57.051Z,13.69
2022-09-28T12:49:47.204Z,13.66
2022-09-28T12:50:58.465Z,13.62
2022-09-28T12:51:57.003Z,13.60
2022-09-28T12:52:59.383Z,13.60
2022-09-28T12:53:58.003Z,13.59
2022-09-28T12:54:57.066Z,13.59
2022-09-28T12:55:56.962Z,13.59
2022-09-28T12:56:56.943Z,13.57
2022-09-28T12:57:56.932Z,13.54
2022-09-28T12:58:56.941Z,13.49
2022-09-28T12:59:56.923Z,13.45
2022-09-28T13:00:56.892Z,13.36
2022-09-28T13:01:56.955Z,13.29
2022-09-28T13:02:56.957Z,13.28
2022-09-28T13:03:56.954Z,13.23
2022-09-28T13:04:56.853Z,13.22
2022-09-28T13:05:56.846Z,13.25
2022-09-28T13:06:56.825Z,13.28
2022-09-28T13:07:56.826Z,13.29
2022-09-28T13:08:56.815Z,13.32
2022-09-28T13:09:56.804Z,13.38
2022-09-28T13:10:56.786Z,13.44